Main page
METAR-TAF:

METAR-TAF

Airports :

Rabat–Salé Airport

Rabat, Morocco

latitude: 34-03N, longitude: 006-46W, elevation: 84 m

Current weather observation

The report was made 28 minutes ago, at 20:30 UTC
Wind 3 kt from the Northeast
Temperature 15°C
Humidity 94%
Pressure 1018 hPa
Visibility: 6000 m

METAR: GMME 112030Z 05003KT 6000 NSC 15/14 Q1018 NOSIG

Time: 20:58 (20:58 UTC)

Forecast

The report was made 3 hours and 58 minutes ago, at 17:00 UTC
Forecast valid from 11 at 18 UTC to 12 at 24 UTC
Wind 10 kt from the North/Northwest
Visibility: 6000 m
Temporary
from 12 at 00 UTC to 12 at 08 UTC
Wind 2 kt from variable directions
Visibility: 3000 m
Broken clouds at a height of 800 ft
Scattered clouds at a height of 1500 ft
mist

TAF: GMME 111700Z 1118/1224 34010KT 6000 NSC TEMPO 1200/1208 VRB02KT 3000 BR BKN008 SCT015

Weather observations and forecasts of more than 4000 airports (METAR and TAF reports).

The available stations are represented by yellow and red dots on the map.

Hover mouse over dot to see the name of the station.

Then click to see weather observations and forecasts.

To change the map : click on the green buttons with a black cross to zoom in, on the green button with a dash to zoom out, or on the green arrows for adjacent maps.


METAR-TAF: